Nagaleader — VRDD5 — position and weather

sailwx.info

Track history (hours):
 
Tides and Currents Weather Stations Pressure Air Temp Water Temp Dewpoint Dewpoint Depression Visibility Wind Speed Wind Dir Waves Ship Positions

Nagaleader

Last reported at 2015-Jul-31 19:05 UTC. Time now 2015-Aug-01 13:54 UTC.
Position N 22°53' E 120°04'.

Length 113 m; draft 6 m.

Type: Cargo ship. MMSI: 477926700.

Date/timePositionNaut miles runAvg speedWind from/ knotsBaromVisibWave heightAir tempDewpointWater temp
2015-Jul-31 19:05N 22°53' E 120°04'611.6
2015-Jul-31 18:33N 22°47' E 120°06'1212.0
2015-Jul-31 17:33N 22°38' E 120°14'6 5.9
2015-Jul-31 16:33N 22°34' E 120°19'0 0.1
2015-Jul-31 15:33N 22°34' E 120°19'0 0.0
2015-Jul-31 14:29N 22°34' E 120°19'0 0.0
2015-Jul-31 13:29N 22°34' E 120°19'0 0.0
2015-Jul-31 12:14N 22°34' E 120°19'0 0.0
2015-Jul-31 11:32N 22°34' E 120°19'0 0.1
2015-Jul-31 10:26N 22°34' E 120°19'1 0.1
2015-Jul-31 00:32N 22°33' E 120°18'6 6.5
2015-Jul-30 23:33N 22°34' E 120°12'10111.9
2015-Jul-30 15:06N 24°13' E 119°56'712.3
2015-Jul-30 14:32N 24°20' E 119°56'1412.5
2015-Jul-30 13:24N 24°35' E 119°56'2312.1
2015-Jul-30 11:31N 24°57' E 119°57'1111.0
2015-Jul-30 10:32N 25°08' E 119°58'1110.4
2015-Jul-30 09:29N 25°19' E 119°58'53 9.8
2015-Jul-30 04:04N 26°08' E 119°35'5 8.9
2015-Jul-30 03:33N 26°05' E 119°32'5 5.3
2015-Jul-30 02:33N 26°00' E 119°29'0 0.0
2015-Jul-30 01:09N 26°00' E 119°29'0 0.0
2015-Jul-30 00:33N 26°00' E 119°29'0 0.0
2015-Jul-29 23:33N 26°00' E 119°29'0 0.0
2015-Jul-29 22:33N 26°00' E 119°29'0 0.0
2015-Jul-29 21:27N 26°00' E 119°29'0 0.0
2015-Jul-29 20:33N 26°00' E 119°29'0 0.0
2015-Jul-29 19:27N 26°00' E 119°29'0 0.1
2015-Jul-29 18:33N 26°00' E 119°29'0 0.1
2015-Jul-29 17:33N 26°00' E 119°29'0 0.0
2015-Jul-29 16:27N 26°00' E 119°29'0 0.0
2015-Jul-29 15:27N 26°00' E 119°29'0 0.0
2015-Jul-29 14:33N 26°00' E 119°29'1 0.5
2015-Jul-29 13:33N 25°60' E 119°29'0 0.0
2015-Jul-29 12:34N 25°60' E 119°29'8 7.6
2015-Jul-29 11:34N 26°06' E 119°33'2 1.6
2015-Jul-29 10:32N 26°08' E 119°34'0 0.1
2015-Jul-29 09:30N 26°08' E 119°34'54 6.6
2015-Jul-29 01:20N 25°15' E 119°44'912.1
2015-Jul-29 00:33N 25°18' E 119°35'1010.5
2015-Jul-28 23:33N 25°21' E 119°24'7 6.4
2015-Jul-28 22:31N 25°25' E 119°17'0 0.1
2015-Jul-28 21:22N 25°25' E 119°17'0 0.0
2015-Jul-28 20:22N 25°25' E 119°17'0 0.0
2015-Jul-28 19:28N 25°25' E 119°17'0 0.0
2015-Jul-28 18:28N 25°25' E 119°17'0 0.0
2015-Jul-28 17:28N 25°25' E 119°17'0 0.0
2015-Jul-28 16:31N 25°25' E 119°17'0 0.0
2015-Jul-28 15:28N 25°25' E 119°17'0 0.0
2015-Jul-28 14:28N 25°25' E 119°17'0 0.1
2015-Jul-28 13:33N 25°25' E 119°17'6 5.9
2015-Jul-28 12:34N 25°22' E 119°23'1 0.9
2015-Jul-28 11:33N 25°22' E 119°24'0 0.0
2015-Jul-28 10:33N 25°22' E 119°24'0 0.0
2015-Jul-28 09:33N 25°22' E 119°24'0 0.1
2015-Jul-28 08:33N 25°22' E 119°24'7 7.3
2015-Jul-28 07:33N 25°15' E 119°25'1312.4
2015-Jul-28 06:33N 25°02' E 119°25'13713.3
2015-Jul-27 20:12N 22°50' E 120°05'812.4
2015-Jul-27 19:33N 22°43' E 120°09'1010.2
2015-Jul-27 18:33N 22°36' E 120°17'3 2.6
2015-Jul-27 17:29N 22°34' E 120°19'0 0.0
2015-Jul-27 16:29N 22°34' E 120°19'0 0.0
2015-Jul-27 15:29N 22°34' E 120°19'0 0.0
2015-Jul-27 14:23N 22°34' E 120°19'0 0.0
2015-Jul-27 13:29N 22°34' E 120°19'1 0.2
2015-Jul-27 08:27N 22°33' E 120°20'0 0.1
2015-Jul-27 07:14N 22°33' E 120°20'5 7.3
2015-Jul-27 06:33N 22°32' E 120°15'1111.2
2015-Jul-27 05:33N 22°42' E 120°09'18510.8
2015-Jul-26 12:21N 25°47' E 119°54'2010.7
2015-Jul-26 10:31N 26°05' E 119°47'10 9.9
2015-Jul-26 09:27N 26°08' E 119°36'8 8.4
2015-Jul-26 08:33N 26°02' E 119°30'2 2.2
2015-Jul-26 07:32N 26°00' E 119°29'0 0.0
2015-Jul-26 06:32N 26°00' E 119°29'0 0.0
2015-Jul-26 05:26N 26°00' E 119°29'0 0.0
2015-Jul-26 04:32N 26°00' E 119°29'0 0.0
2015-Jul-26 03:26N 26°00' E 119°29'0 0.0
2015-Jul-26 02:26N 26°00' E 119°29'0 0.0
2015-Jul-26 01:32N 26°00' E 119°29'0 0.0
2015-Jul-26 00:32N 26°00' E 119°29'0 0.0
2015-Jul-25 23:32N 26°00' E 119°29'0 0.0
2015-Jul-25 22:32N 26°00' E 119°29'0 0.0
2015-Jul-25 21:32N 26°00' E 119°29'0 0.0
2015-Jul-25 20:31N 26°00' E 119°29'0 0.0
2015-Jul-25 19:25N 26°00' E 119°29'0 0.0
2015-Jul-25 18:31N 26°00' E 119°29'0 0.0
2015-Jul-25 17:31N 26°00' E 119°29'0 0.0
2015-Jul-25 16:31N 26°00' E 119°29'0 0.0
2015-Jul-25 15:25N 26°00' E 119°29'0 0.0
2015-Jul-25 14:31N 26°00' E 119°29'0 0.0
2015-Jul-25 13:25N 26°00' E 119°29'0 0.0
2015-Jul-25 12:31N 26°00' E 119°29'0 0.1
2015-Jul-25 11:33N 26°00' E 119°29'7 6.6
2015-Jul-25 10:33N 26°06' E 119°32'19612.0
2015-Jul-24 18:13N 22°53' E 120°04'812.4
2015-Jul-24 17:33N 22°45' E 120°08'1211.7
2015-Jul-24 16:33N 22°34' E 120°13'6 5.8
2015-Jul-24 15:33N 22°34' E 120°19'0 0.0
2015-Jul-24 14:27N 22°34' E 120°19'0 0.0
2015-Jul-24 12:32N 22°34' E 120°19'0 0.1
2015-Jul-24 11:32N 22°34' E 120°19'0 0.0
2015-Jul-24 10:14N 22°34' E 120°19'0 0.0
2015-Jul-24 09:32N 22°34' E 120°19'1 1.1
2015-Jul-24 08:31N 22°33' E 120°20'0 0.0
2015-Jul-24 07:31N 22°33' E 120°20'0 0.0
2015-Jul-24 02:12N 22°33' E 120°20'3 4.1
2015-Jul-24 01:33N 22°33' E 120°17'6 5.9
2015-Jul-24 00:33N 22°35' E 120°11'21110.3
2015-Jul-23 04:06N 26°05' E 119°46'1010.6
2015-Jul-23 03:09N 26°08' E 119°35'812.5
2015-Jul-23 02:32N 26°02' E 119°30'2 2.3
2015-Jul-23 01:33N 26°00' E 119°29'0 0.0
2015-Jul-23 00:33N 26°00' E 119°29'0 0.0
2015-Jul-22 23:33N 26°00' E 119°29'0 0.0
2015-Jul-22 22:31N 26°00' E 119°29'0 0.0
2015-Jul-22 21:31N 26°00' E 119°29'0 0.0
2015-Jul-22 20:31N 26°00' E 119°29'0 0.0
2015-Jul-22 19:25N 26°00' E 119°29'0 0.0
2015-Jul-22 18:25N 26°00' E 119°29'0 0.0
2015-Jul-22 17:31N 26°00' E 119°29'0 0.0
2015-Jul-22 16:31N 26°00' E 119°29'0 0.0
2015-Jul-22 15:31N 26°00' E 119°29'0 0.0
2015-Jul-22 14:31N 26°00' E 119°29'0 0.0
2015-Jul-22 13:19N 26°00' E 119°29'1 0.7
2015-Jul-22 12:33N 26°01' E 119°29'8 8.2
2015-Jul-22 11:31N 26°08' E 119°34'54 9.1
2015-Jul-22 05:33N 25°14' E 119°45'1111.3
2015-Jul-22 04:33N 25°18' E 119°34'1010.5
2015-Jul-22 03:33N 25°22' E 119°23'6 6.0
2015-Jul-22 02:33N 25°25' E 119°17'0 0.0
2015-Jul-22 01:33N 25°25' E 119°17'0 0.0
2015-Jul-22 00:33N 25°25' E 119°17'0 0.0
2015-Jul-21 23:33N 25°25' E 119°17'0 0.0
2015-Jul-21 22:33N 25°25' E 119°17'0 0.0
2015-Jul-21 21:32N 25°25' E 119°17'0 0.1
2015-Jul-21 20:32N 25°25' E 119°17'0 0.1
2015-Jul-21 19:32N 25°25' E 119°17'  
Track history (hours):
 
Tides and Currents Weather Stations Pressure Air Temp Water Temp Dewpoint Dewpoint Depression Visibility Wind Speed Wind Dir Waves Ship Positions

Nagaleader

Last reported at 2015-Jul-31 19:05 UTC. Time now 2015-Aug-01 13:54 UTC.
Position N 22°53' E 120°04'.

Length 113 m; draft 6 m.

Type: Cargo ship. MMSI: 477926700.

Date/timePositionNaut miles runAvg speedWind from/ knotsBaromVisibWave heightAir tempDewpointWater temp
2015-Jul-31 19:05N 22°53' E 120°04'611.6
2015-Jul-31 18:33N 22°47' E 120°06'1212.0
2015-Jul-31 17:33N 22°38' E 120°14'6 5.9
2015-Jul-31 16:33N 22°34' E 120°19'0 0.1
2015-Jul-31 15:33N 22°34' E 120°19'0 0.0
2015-Jul-31 14:29N 22°34' E 120°19'0 0.0
2015-Jul-31 13:29N 22°34' E 120°19'0 0.0
2015-Jul-31 12:14N 22°34' E 120°19'0 0.0
2015-Jul-31 11:32N 22°34' E 120°19'0 0.1
2015-Jul-31 10:26N 22°34' E 120°19'1 0.1
2015-Jul-31 00:32N 22°33' E 120°18'6 6.5
2015-Jul-30 23:33N 22°34' E 120°12'10111.9
2015-Jul-30 15:06N 24°13' E 119°56'712.3
2015-Jul-30 14:32N 24°20' E 119°56'1412.5
2015-Jul-30 13:24N 24°35' E 119°56'2312.1
2015-Jul-30 11:31N 24°57' E 119°57'1111.0
2015-Jul-30 10:32N 25°08' E 119°58'1110.4
2015-Jul-30 09:29N 25°19' E 119°58'53 9.8
2015-Jul-30 04:04N 26°08' E 119°35'5 8.9
2015-Jul-30 03:33N 26°05' E 119°32'5 5.3
2015-Jul-30 02:33N 26°00' E 119°29'0 0.0
2015-Jul-30 01:09N 26°00' E 119°29'0 0.0
2015-Jul-30 00:33N 26°00' E 119°29'0 0.0
2015-Jul-29 23:33N 26°00' E 119°29'0 0.0
2015-Jul-29 22:33N 26°00' E 119°29'0 0.0
2015-Jul-29 21:27N 26°00' E 119°29'0 0.0
2015-Jul-29 20:33N 26°00' E 119°29'0 0.0
2015-Jul-29 19:27N 26°00' E 119°29'0 0.1
2015-Jul-29 18:33N 26°00' E 119°29'0 0.1
2015-Jul-29 17:33N 26°00' E 119°29'0 0.0
2015-Jul-29 16:27N 26°00' E 119°29'0 0.0
2015-Jul-29 15:27N 26°00' E 119°29'0 0.0
2015-Jul-29 14:33N 26°00' E 119°29'1 0.5
2015-Jul-29 13:33N 25°60' E 119°29'0 0.0
2015-Jul-29 12:34N 25°60' E 119°29'8 7.6
2015-Jul-29 11:34N 26°06' E 119°33'2 1.6
2015-Jul-29 10:32N 26°08' E 119°34'0 0.1
2015-Jul-29 09:30N 26°08' E 119°34'54 6.6
2015-Jul-29 01:20N 25°15' E 119°44'912.1
2015-Jul-29 00:33N 25°18' E 119°35'1010.5
2015-Jul-28 23:33N 25°21' E 119°24'7 6.4
2015-Jul-28 22:31N 25°25' E 119°17'0 0.1
2015-Jul-28 21:22N 25°25' E 119°17'0 0.0
2015-Jul-28 20:22N 25°25' E 119°17'0 0.0
2015-Jul-28 19:28N 25°25' E 119°17'0 0.0
2015-Jul-28 18:28N 25°25' E 119°17'0 0.0
2015-Jul-28 17:28N 25°25' E 119°17'0 0.0
2015-Jul-28 16:31N 25°25' E 119°17'0 0.0
2015-Jul-28 15:28N 25°25' E 119°17'0 0.0
2015-Jul-28 14:28N 25°25' E 119°17'0 0.1
2015-Jul-28 13:33N 25°25' E 119°17'6 5.9
2015-Jul-28 12:34N 25°22' E 119°23'1 0.9
2015-Jul-28 11:33N 25°22' E 119°24'0 0.0
2015-Jul-28 10:33N 25°22' E 119°24'0 0.0
2015-Jul-28 09:33N 25°22' E 119°24'0 0.1
2015-Jul-28 08:33N 25°22' E 119°24'7 7.3
2015-Jul-28 07:33N 25°15' E 119°25'1312.4
2015-Jul-28 06:33N 25°02' E 119°25'13713.3
2015-Jul-27 20:12N 22°50' E 120°05'812.4
2015-Jul-27 19:33N 22°43' E 120°09'1010.2
2015-Jul-27 18:33N 22°36' E 120°17'3 2.6
2015-Jul-27 17:29N 22°34' E 120°19'0 0.0
2015-Jul-27 16:29N 22°34' E 120°19'0 0.0
2015-Jul-27 15:29N 22°34' E 120°19'0 0.0
2015-Jul-27 14:23N 22°34' E 120°19'0 0.0
2015-Jul-27 13:29N 22°34' E 120°19'1 0.2
2015-Jul-27 08:27N 22°33' E 120°20'0 0.1
2015-Jul-27 07:14N 22°33' E 120°20'5 7.3
2015-Jul-27 06:33N 22°32' E 120°15'1111.2
2015-Jul-27 05:33N 22°42' E 120°09'18510.8
2015-Jul-26 12:21N 25°47' E 119°54'2010.7
2015-Jul-26 10:31N 26°05' E 119°47'10 9.9
2015-Jul-26 09:27N 26°08' E 119°36'8 8.4
2015-Jul-26 08:33N 26°02' E 119°30'2 2.2
2015-Jul-26 07:32N 26°00' E 119°29'0 0.0
2015-Jul-26 06:32N 26°00' E 119°29'0 0.0
2015-Jul-26 05:26N 26°00' E 119°29'0 0.0
2015-Jul-26 04:32N 26°00' E 119°29'0 0.0
2015-Jul-26 03:26N 26°00' E 119°29'0 0.0
2015-Jul-26 02:26N 26°00' E 119°29'0 0.0
2015-Jul-26 01:32N 26°00' E 119°29'0 0.0
2015-Jul-26 00:32N 26°00' E 119°29'0 0.0
2015-Jul-25 23:32N 26°00' E 119°29'0 0.0
2015-Jul-25 22:32N 26°00' E 119°29'0 0.0
2015-Jul-25 21:32N 26°00' E 119°29'0 0.0
2015-Jul-25 20:31N 26°00' E 119°29'0 0.0
2015-Jul-25 19:25N 26°00' E 119°29'0 0.0
2015-Jul-25 18:31N 26°00' E 119°29'0 0.0
2015-Jul-25 17:31N 26°00' E 119°29'0 0.0
2015-Jul-25 16:31N 26°00' E 119°29'0 0.0
2015-Jul-25 15:25N 26°00' E 119°29'0 0.0
2015-Jul-25 14:31N 26°00' E 119°29'0 0.0
2015-Jul-25 13:25N 26°00' E 119°29'0 0.0
2015-Jul-25 12:31N 26°00' E 119°29'0 0.1
2015-Jul-25 11:33N 26°00' E 119°29'7 6.6
2015-Jul-25 10:33N 26°06' E 119°32'19612.0
2015-Jul-24 18:13N 22°53' E 120°04'812.4
2015-Jul-24 17:33N 22°45' E 120°08'1211.7
2015-Jul-24 16:33N 22°34' E 120°13'6 5.8
2015-Jul-24 15:33N 22°34' E 120°19'0 0.0
2015-Jul-24 14:27N 22°34' E 120°19'0 0.0
2015-Jul-24 12:32N 22°34' E 120°19'0 0.1
2015-Jul-24 11:32N 22°34' E 120°19'0 0.0
2015-Jul-24 10:14N 22°34' E 120°19'0 0.0
2015-Jul-24 09:32N 22°34' E 120°19'1 1.1
2015-Jul-24 08:31N 22°33' E 120°20'0 0.0
2015-Jul-24 07:31N 22°33' E 120°20'0 0.0
2015-Jul-24 02:12N 22°33' E 120°20'3 4.1
2015-Jul-24 01:33N 22°33' E 120°17'6 5.9
2015-Jul-24 00:33N 22°35' E 120°11'21110.3
2015-Jul-23 04:06N 26°05' E 119°46'1010.6
2015-Jul-23 03:09N 26°08' E 119°35'812.5
2015-Jul-23 02:32N 26°02' E 119°30'2 2.3
2015-Jul-23 01:33N 26°00' E 119°29'0 0.0
2015-Jul-23 00:33N 26°00' E 119°29'0 0.0
2015-Jul-22 23:33N 26°00' E 119°29'0 0.0
2015-Jul-22 22:31N 26°00' E 119°29'0 0.0
2015-Jul-22 21:31N 26°00' E 119°29'0 0.0
2015-Jul-22 20:31N 26°00' E 119°29'0 0.0
2015-Jul-22 19:25N 26°00' E 119°29'0 0.0
2015-Jul-22 18:25N 26°00' E 119°29'0 0.0
2015-Jul-22 17:31N 26°00' E 119°29'0 0.0
2015-Jul-22 16:31N 26°00' E 119°29'0 0.0
2015-Jul-22 15:31N 26°00' E 119°29'0 0.0
2015-Jul-22 14:31N 26°00' E 119°29'0 0.0
2015-Jul-22 13:19N 26°00' E 119°29'1 0.7
2015-Jul-22 12:33N 26°01' E 119°29'8 8.2
2015-Jul-22 11:31N 26°08' E 119°34'54 9.1
2015-Jul-22 05:33N 25°14' E 119°45'1111.3
2015-Jul-22 04:33N 25°18' E 119°34'1010.5
2015-Jul-22 03:33N 25°22' E 119°23'6 6.0
2015-Jul-22 02:33N 25°25' E 119°17'0 0.0
2015-Jul-22 01:33N 25°25' E 119°17'0 0.0
2015-Jul-22 00:33N 25°25' E 119°17'0 0.0
2015-Jul-21 23:33N 25°25' E 119°17'0 0.0
2015-Jul-21 22:33N 25°25' E 119°17'0 0.0
2015-Jul-21 21:32N 25°25' E 119°17'0 0.1
2015-Jul-21 20:32N 25°25' E 119°17'0 0.1
2015-Jul-21 19:32N 25°25' E 119°17'  

Dump ship's entire track history